Time;durP1;ratioP1;P1;durP2;ratioP2;P2;SDS_P1;SDS_P2;PMS_P1;PMS_P2;Temp;Humidity;BMP_temperature;BMP_pressure;BME280_temperature;BME280_humidity;BME280_pressure;Samples;Min_cycle;Max_cycle;Signal;HPM_P1;HPM_P2
2021/12/15 00:00:47;;;;;;;1.80;1.70;;;7.30;99.90;;;;;;5082341;28;20054;-81
2021/12/15 00:03:15;;;;;;;1.58;1.45;;;7.30;99.90;;;;;;5090526;28;20499;-79
2021/12/15 00:05:42;;;;;;;69.32;44.78;;;7.30;99.90;;;;;;5083703;28;20111;-80
2021/12/15 00:08:11;;;;;;;24.23;12.20;;;7.30;99.90;;;;;;5084100;28;20098;-81
2021/12/15 00:10:41;;;;;;;101.82;51.65;;;7.30;99.90;;;;;;5085208;28;20421;-78
2021/12/15 00:13:07;;;;;;;273.63;132.15;;;7.30;99.90;;;;;;5082850;28;20120;-79
2021/12/15 00:15:33;;;;;;;84.40;46.30;;;7.30;99.90;;;;;;5083448;28;20016;-79
2021/12/15 00:17:59;;;;;;;34.78;24.65;;;7.30;99.90;;;;;;5089397;28;20473;-78
2021/12/15 00:20:26;;;;;;;12.30;9.18;;;7.30;99.90;;;;;;5080218;28;20031;-79
2021/12/15 00:22:53;;;;;;;8.93;7.95;;;7.30;99.90;;;;;;5090609;28;20101;-79
2021/12/15 00:25:21;;;;;;;5.55;4.03;;;7.30;99.90;;;;;;5078493;28;20132;-79
2021/12/15 00:27:47;;;;;;;6.13;3.75;;;7.40;99.90;;;;;;5085226;28;20478;-79
2021/12/15 00:30:13;;;;;;;2.47;1.83;;;7.40;99.90;;;;;;5082214;28;20116;-78
2021/12/15 00:32:39;;;;;;;5.80;1.42;;;7.50;99.90;;;;;;5090394;28;20099;-78
2021/12/15 00:35:06;;;;;;;1.10;1.10;;;7.60;99.90;;;;;;5086535;28;20386;-78
2021/12/15 00:37:32;;;;;;;5.53;4.85;;;7.70;99.90;;;;;;5083509;28;20514;-79
2021/12/15 00:39:58;;;;;;;4.15;3.83;;;7.70;99.90;;;;;;5084241;28;20075;-79
2021/12/15 00:42:24;;;;;;;6.00;5.40;;;7.70;99.90;;;;;;5085152;28;20745;-79
2021/12/15 00:44:50;;;;;;;2.35;2.15;;;7.60;99.90;;;;;;5084128;28;20041;-78
2021/12/15 00:47:16;;;;;;;19.27;17.20;;;7.60;99.90;;;;;;5089376;28;20027;-79
2021/12/15 00:49:42;;;;;;;3.13;2.00;;;7.50;99.90;;;;;;5084563;28;20036;-78
2021/12/15 00:52:08;;;;;;;2.55;2.10;;;7.50;99.90;;;;;;5112542;27;20020;-78
2021/12/15 00:54:36;;;;;;;2.50;2.30;;;7.50;99.90;;;;;;5084208;28;20813;-78
2021/12/15 00:57:03;;;;;;;10.00;8.95;;;7.40;99.90;;;;;;5089255;28;20375;-78
2021/12/15 00:59:30;;;;;;;10.07;6.15;;;7.30;99.90;;;;;;5075559;28;20032;-78
2021/12/15 01:01:56;;;;;;;5.88;5.28;;;7.30;99.90;;;;;;5085437;28;20024;-79
2021/12/15 01:04:23;;;;;;;3.65;3.30;;;7.30;99.90;;;;;;5089300;28;20028;-78
2021/12/15 01:06:52;;;;;;;20.05;14.88;;;7.30;99.90;;;;;;5084488;28;20479;-78
2021/12/15 01:09:26;;;;;;;3.45;2.90;;;7.30;99.90;;;;;;5086897;28;20035;-79
2021/12/15 01:20:23;;;;;;;5.30;4.75;;;7.20;99.90;;;;;;5086154;28;20039;-79
2021/12/15 01:22:53;;;;;;;4.32;3.72;;;7.20;99.90;;;;;;5087860;28;20151;-78
2021/12/15 01:25:28;;;;;;;5.57;4.90;;;7.10;99.90;;;;;;5078846;28;20066;-79
2021/12/15 01:27:54;;;;;;;1.95;1.80;;;7.10;99.90;;;;;;5089230;28;20035;-79
2021/12/15 01:30:28;;;;;;;1.70;1.60;;;7.00;99.90;;;;;;5089489;28;20281;-78
2021/12/15 01:32:55;;;;;;;1.92;1.75;;;7.10;99.90;;;;;;5091253;28;20020;-78
2021/12/15 01:35:22;;;;;;;6.38;1.65;;;7.10;99.90;;;;;;5087141;28;20408;-79
2021/12/15 01:37:49;;;;;;;1.67;1.35;;;7.20;99.90;;;;;;5091316;28;20024;-77
2021/12/15 01:40:26;;;;;;;3.65;1.50;;;7.20;99.90;;;;;;5084415;28;20169;-78
2021/12/15 01:42:52;;;;;;;1.55;1.33;;;7.20;99.90;;;;;;5088305;28;20036;-78
2021/12/15 01:48:13;;;;;;;1.75;1.65;;;7.10;99.90;;;;;;5085351;28;20039;-78
2021/12/15 01:50:41;;;;;;;1.90;1.60;;;7.10;99.90;;;;;;5090494;28;20482;-79
2021/12/15 01:53:08;;;;;;;1.40;1.30;;;7.20;99.90;;;;;;5081434;28;20028;-79
2021/12/15 01:55:34;;;;;;;1.50;1.40;;;7.20;99.90;;;;;;5084865;28;20560;-79
2021/12/15 01:58:00;;;;;;;2.35;1.90;;;7.20;99.90;;;;;;5088039;28;20028;-78
2021/12/15 02:00:35;;;;;;;1.77;1.65;;;7.20;99.90;;;;;;5083012;28;20024;-78
2021/12/15 02:03:00;;;;;;;1.83;1.50;;;7.20;99.90;;;;;;5082186;28;20101;-78
2021/12/15 02:05:28;;;;;;;1.65;1.55;;;7.30;99.90;;;;;;5089082;28;20105;-79
2021/12/15 02:07:54;;;;;;;1.40;1.30;;;7.30;99.90;;;;;;5081670;28;20038;-79
2021/12/15 02:10:24;;;;;;;1.60;1.50;;;7.30;99.90;;;;;;5081941;28;20031;-79
2021/12/15 02:12:50;;;;;;;1.50;1.40;;;7.30;99.90;;;;;;5085787;28;20107;-79
2021/12/15 02:15:37;;;;;;;1.50;1.40;;;7.40;99.90;;;;;;5085732;28;20452;-79
2021/12/15 02:18:07;;;;;;;2.55;1.70;;;7.40;99.90;;;;;;5082255;28;20115;-79
2021/12/15 02:20:38;;;;;;;1.65;1.55;;;7.40;99.90;;;;;;5088983;28;20604;-79
2021/12/15 02:23:05;;;;;;;1.70;1.60;;;7.40;99.90;;;;;;5088707;28;20115;-79
2021/12/15 02:25:31;;;;;;;2.75;1.63;;;7.50;99.90;;;;;;5087948;28;20090;-79
2021/12/15 02:27:59;;;;;;;2.10;1.65;;;7.50;99.90;;;;;;5087600;28;20486;-79
2021/12/15 02:38:16;;;;;;;1.60;1.42;;;7.50;99.90;;;;;;5089570;28;20162;-78
2021/12/15 02:40:42;;;;;;;1.75;1.60;;;7.50;99.90;;;;;;5090203;28;20105;-79
2021/12/15 02:43:08;;;;;;;3.20;1.65;;;7.40;99.90;;;;;;5088259;28;20534;-79
2021/12/15 02:45:34;;;;;;;1.48;1.38;;;7.40;99.90;;;;;;5089423;28;20036;-78
2021/12/15 02:48:00;;;;;;;4.22;1.67;;;7.40;99.90;;;;;;5090282;28;20052;-79
2021/12/15 02:50:28;;;;;;;1.63;1.52;;;7.30;99.90;;;;;;5080543;28;20101;-79
2021/12/15 02:52:58;;;;;;;1.65;1.55;;;7.30;99.90;;;;;;5090304;28;20020;-79
2021/12/15 02:55:24;;;;;;;1.65;1.55;;;7.30;99.90;;;;;;5084613;28;20043;-78
2021/12/15 02:57:52;;;;;;;2.55;1.90;;;7.30;99.90;;;;;;5081007;28;20115;-79
2021/12/15 03:00:31;;;;;;;1.98;1.85;;;7.20;99.90;;;;;;5084545;28;20032;-79
2021/12/15 03:05:55;;;;;;;1.85;1.75;;;7.00;99.90;;;;;;5083606;28;20129;-79
2021/12/15 03:08:25;;;;;;;2.00;1.77;;;6.90;99.90;;;;;;5090616;28;20032;-79
2021/12/15 03:16:24;;;;;;;3.78;2.55;;;7.20;99.90;;;;;;5085564;28;20058;-79
2021/12/15 03:18:50;;;;;;;3.40;2.45;;;7.40;99.90;;;;;;5089125;28;20521;-79
2021/12/15 03:21:24;;;;;;;2.13;1.67;;;7.50;99.90;;;;;;5089118;28;20081;-78
2021/12/15 03:23:58;;;;;;;5.65;1.50;;;7.70;99.90;;;;;;5077396;28;20051;-78
2021/12/15 03:26:40;;;;;;;4.70;2.15;;;7.70;99.90;;;;;;5083806;28;20089;-78
2021/12/15 03:35:19;;;;;;;5.65;1.55;;;7.90;99.90;;;;;;5091921;28;20431;-78
2021/12/15 03:37:34;;;;;;;1.60;1.45;;;8.10;99.90;;;;;;5088629;28;20035;-78
2021/12/15 03:40:00;;;;;;;1.48;1.38;;;8.20;99.90;;;;;;5088040;28;20509;-79
2021/12/15 03:42:34;;;;;;;2.85;1.60;;;8.20;99.90;;;;;;5090692;28;20107;-79
2021/12/15 03:45:02;;;;;;;1.48;1.30;;;8.20;99.90;;;;;;5092420;28;20123;-78
2021/12/15 03:47:31;;;;;;;3.95;1.45;;;8.30;99.90;;;;;;5092899;28;20024;-78
2021/12/15 03:49:59;;;;;;;1.60;1.50;;;8.30;99.90;;;;;;5089059;28;20029;-79
2021/12/15 03:52:26;;;;;;;2.17;1.90;;;8.30;99.90;;;;;;5090018;28;20114;-79
2021/12/15 03:54:52;;;;;;;7.57;4.20;;;8.30;99.90;;;;;;5085900;28;20494;-78
2021/12/15 03:57:20;;;;;;;6.55;5.10;;;8.30;99.90;;;;;;5093266;28;20054;-79
2021/12/15 03:59:45;;;;;;;1.60;1.38;;;8.40;99.90;;;;;;5090335;28;20496;-79
2021/12/15 04:02:15;;;;;;;2.22;1.42;;;8.50;99.90;;;;;;5081862;28;20024;-78
2021/12/15 04:04:42;;;;;;;2.63;1.85;;;8.40;99.90;;;;;;5090787;28;20545;-78
2021/12/15 04:07:09;;;;;;;6.57;4.55;;;8.40;99.90;;;;;;5092726;28;20051;-79
2021/12/15 04:09:35;;;;;;;3.67;2.25;;;8.30;99.90;;;;;;5089364;28;20028;-78
2021/12/15 04:12:01;;;;;;;2.25;2.00;;;8.20;99.90;;;;;;5090471;28;20046;-79
2021/12/15 04:14:34;;;;;;;4.00;2.97;;;8.20;99.90;;;;;;5090058;28;20278;-79
2021/12/15 04:17:06;;;;;;;2.10;1.17;;;8.10;99.90;;;;;;5091335;28;20123;-78
2021/12/15 04:19:36;;;;;;;8.57;4.47;;;8.10;99.90;;;;;;5083205;28;20024;-79
2021/12/15 04:22:03;;;;;;;5.68;2.58;;;8.00;99.90;;;;;;5091442;28;20497;-79
2021/12/15 04:24:29;;;;;;;1.80;1.70;;;7.90;99.90;;;;;;5084378;28;20605;-79
2021/12/15 04:26:58;;;;;;;1.77;1.50;;;7.80;99.90;;;;;;5091429;28;20058;-79
2021/12/15 04:29:24;;;;;;;2.03;1.73;;;7.70;99.90;;;;;;5086255;28;20050;-79
2021/12/15 04:32:07;;;;;;;1.75;1.50;;;7.70;99.90;;;;;;5080263;28;20444;-79
2021/12/15 04:34:33;;;;;;;1.65;1.55;;;7.80;99.90;;;;;;5080572;28;20051;-79
2021/12/15 04:36:59;;;;;;;1.45;1.35;;;8.00;99.90;;;;;;5091174;28;20067;-78
2021/12/15 04:39:27;;;;;;;1.52;1.42;;;8.10;99.90;;;;;;5087546;28;20116;-79
2021/12/15 04:41:54;;;;;;;1.95;1.40;;;8.30;99.90;;;;;;5083100;28;20073;-79
2021/12/15 04:44:24;;;;;;;1.42;1.33;;;8.40;99.90;;;;;;5088251;28;20020;-80
2021/12/15 04:47:00;;;;;;;1.38;1.27;;;8.50;99.90;;;;;;5090875;28;20114;-80
2021/12/15 04:49:29;;;;;;;1.70;1.60;;;8.60;99.90;;;;;;5087961;28;20494;-80
2021/12/15 04:51:54;;;;;;;1.77;1.65;;;8.50;99.90;;;;;;5090534;28;20454;-80
2021/12/15 04:54:20;;;;;;;1.60;1.50;;;8.60;99.90;;;;;;5085830;28;20046;-80
2021/12/15 04:56:47;;;;;;;1.50;1.38;;;8.60;99.90;;;;;;5088971;28;20020;-79
2021/12/15 04:59:13;;;;;;;1.73;1.35;;;8.50;99.90;;;;;;5087293;28;20062;-80
2021/12/15 05:01:39;;;;;;;1.40;1.30;;;8.50;99.90;;;;;;5080402;28;20044;-80
2021/12/15 05:04:05;;;;;;;2.13;1.58;;;8.50;99.90;;;;;;5091297;28;20035;-80
2021/12/15 05:06:31;;;;;;;1.98;1.60;;;8.50;99.90;;;;;;5087354;28;20392;-80
2021/12/15 05:08:57;;;;;;;1.60;1.50;;;8.40;99.90;;;;;;5089929;28;20474;-83
2021/12/15 05:11:23;;;;;;;2.60;1.77;;;8.20;99.90;;;;;;5078014;28;20020;-80
2021/12/15 05:13:48;;;;;;;1.92;1.75;;;8.00;99.90;;;;;;5086787;28;20039;-80
2021/12/15 05:16:16;;;;;;;3.53;1.88;;;7.90;99.90;;;;;;5090177;28;20016;-80
2021/12/15 05:18:43;;;;;;;2.95;1.90;;;7.70;99.90;;;;;;5090928;28;20020;-80
2021/12/15 05:21:10;;;;;;;1.38;1.27;;;7.50;99.90;;;;;;5085125;28;20028;-80
2021/12/15 05:23:37;;;;;;;2.10;1.92;;;7.50;99.90;;;;;;5083856;28;20023;-80
2021/12/15 05:26:04;;;;;;;1.80;1.70;;;7.40;99.90;;;;;;5085938;28;20071;-80
2021/12/15 05:28:31;;;;;;;2.42;1.60;;;7.40;99.90;;;;;;5090163;28;20070;-80
2021/12/15 05:30:58;;;;;;;1.42;1.33;;;7.40;99.90;;;;;;5091736;28;20036;-80
2021/12/15 05:33:24;;;;;;;1.73;1.52;;;7.40;99.90;;;;;;5090440;28;20550;-80
2021/12/15 05:35:52;;;;;;;2.05;1.85;;;7.50;99.90;;;;;;5091024;28;20036;-80
2021/12/15 05:38:18;;;;;;;2.15;1.45;;;7.50;99.90;;;;;;5091147;28;20417;-79
2021/12/15 05:40:44;;;;;;;2.13;1.92;;;7.50;99.90;;;;;;5090063;28;20093;-81
2021/12/15 05:43:11;;;;;;;2.58;1.60;;;7.50;99.90;;;;;;5090128;28;20031;-80
2021/12/15 05:45:39;;;;;;;1.98;1.50;;;7.50;99.90;;;;;;5089193;28;20055;-80
2021/12/15 05:48:07;;;;;;;5.13;1.70;;;7.50;99.90;;;;;;5089984;28;20115;-81
2021/12/15 05:50:34;;;;;;;2.20;1.70;;;7.50;99.90;;;;;;5089531;28;20024;-80
2021/12/15 05:53:00;;;;;;;1.98;1.80;;;7.50;99.90;;;;;;5089781;28;20024;-80
2021/12/15 05:55:26;;;;;;;3.22;1.50;;;7.50;99.90;;;;;;5089181;28;20023;-80
2021/12/15 05:57:52;;;;;;;3.03;1.52;;;7.40;99.90;;;;;;5089636;28;20035;-81
2021/12/15 06:00:25;;;;;;;1.80;1.70;;;7.30;99.90;;;;;;5086664;28;20031;-81
2021/12/15 06:02:52;;;;;;;2.13;1.55;;;7.20;99.90;;;;;;5087183;28;20024;-81
2021/12/15 06:05:18;;;;;;;2.78;2.47;;;7.10;99.90;;;;;;5082032;28;20039;-80
2021/12/15 06:07:44;;;;;;;62.58;41.40;;;7.20;99.90;;;;;;5091077;28;20025;-81
2021/12/15 06:10:18;;;;;;;29.42;18.50;;;7.20;99.90;;;;;;5089343;28;20068;-80
2021/12/15 06:12:47;;;;;;;9.40;6.60;;;7.30;99.90;;;;;;5089974;28;20035;-82
2021/12/15 06:15:14;;;;;;;10.13;7.82;;;7.30;99.90;;;;;;5085139;28;20020;-84
2021/12/15 06:17:39;;;;;;;3.08;2.70;;;7.30;99.90;;;;;;5089522;28;20142;-82
2021/12/15 06:20:06;;;;;;;4.38;3.40;;;7.30;99.90;;;;;;5089086;28;20174;-83
2021/12/15 06:22:33;;;;;;;2.60;1.90;;;7.30;99.90;;;;;;5087528;28;20020;-80
2021/12/15 06:24:59;;;;;;;3.95;1.98;;;7.30;99.90;;;;;;5079446;28;20141;-83
2021/12/15 06:27:25;;;;;;;1.63;1.42;;;7.30;99.90;;;;;;5087846;28;20469;-79
2021/12/15 06:29:53;;;;;;;1.88;1.75;;;7.20;99.90;;;;;;5081087;28;20028;-81
2021/12/15 06:32:20;;;;;;;3.17;2.75;;;7.20;99.90;;;;;;5088597;28;20469;-81
2021/12/15 06:34:46;;;;;;;2.20;1.92;;;7.20;99.90;;;;;;5090131;28;20060;-81
2021/12/15 06:37:13;;;;;;;3.80;2.50;;;7.10;99.90;;;;;;5089543;28;20066;-80
2021/12/15 06:39:39;;;;;;;3.40;2.72;;;7.00;99.90;;;;;;5088913;28;20021;-81
2021/12/15 06:42:06;;;;;;;4.07;2.35;;;7.00;99.90;;;;;;5089470;28;20101;-80
2021/12/15 06:44:33;;;;;;;4.00;2.85;;;7.10;99.90;;;;;;5089255;28;20403;-81
2021/12/15 07:00:42;;;;;;;1.83;1.63;;;7.40;99.90;;;;;;5090062;28;20544;-82
2021/12/15 07:03:08;;;;;;;3.50;2.10;;;7.40;99.90;;;;;;5083181;28;20032;-81
2021/12/15 07:05:34;;;;;;;2.58;2.33;;;7.60;99.90;;;;;;5089069;28;20042;-81
2021/12/15 07:08:03;;;;;;;3.47;2.80;;;7.90;99.90;;;;;;5091373;28;20032;-82
2021/12/15 07:10:34;;;;;;;2.85;2.53;;;8.00;99.90;;;;;;5093965;28;20058;-82
2021/12/15 07:13:01;;;;;;;2.80;1.73;;;8.00;99.90;;;;;;5086127;28;20120;-82
2021/12/15 07:15:27;;;;;;;3.00;2.20;;;8.10;99.90;;;;;;5091937;28;20121;-81
2021/12/15 07:18:01;;;;;;;4.28;2.08;;;8.10;99.90;;;;;;5093998;28;20494;-81
2021/12/15 07:22:53;;;;;;;2.30;2.10;;;8.30;99.90;;;;;;5093553;28;20024;-80
2021/12/15 07:25:19;;;;;;;2.97;2.50;;;8.30;99.90;;;;;;5090113;28;20035;-81
2021/12/15 07:27:44;;;;;;;3.33;2.10;;;8.30;99.90;;;;;;5094043;28;20110;-81
2021/12/15 07:30:11;;;;;;;3.53;3.00;;;8.30;99.90;;;;;;5093387;28;20490;-79
2021/12/15 07:32:37;;;;;;;4.03;3.58;;;8.40;99.90;;;;;;5094072;28;20020;-83
2021/12/15 07:35:05;;;;;;;3.20;2.90;;;8.40;99.90;;;;;;5093974;28;20038;-83
2021/12/15 07:37:32;;;;;;;6.85;3.70;;;8.50;99.90;;;;;;5092435;28;20024;-80
2021/12/15 07:39:59;;;;;;;3.63;2.47;;;8.60;99.90;;;;;;5092309;28;20036;-81
2021/12/15 07:43:23;;;;;;;2.97;2.65;;;8.70;99.90;;;;;;5092104;28;20031;-81
2021/12/15 07:45:15;;;;;;;2.00;1.90;;;8.90;99.90;;;;;;5088860;28;20075;-80
2021/12/15 07:47:41;;;;;;;2.13;1.75;;;9.00;99.90;;;;;;5093800;28;20059;-80
2021/12/15 07:50:07;;;;;;;2.03;1.83;;;9.10;99.90;;;;;;5093297;28;20032;-81
2021/12/15 07:52:33;;;;;;;2.42;1.85;;;9.30;99.90;;;;;;5092359;28;20020;-80
2021/12/15 07:54:59;;;;;;;2.85;1.95;;;9.40;99.90;;;;;;5091253;28;20119;-80
2021/12/15 07:57:28;;;;;;;2.63;2.08;;;9.50;99.90;;;;;;5090457;28;20024;-81
2021/12/15 07:59:57;;;;;;;2.05;1.60;;;9.60;99.90;;;;;;5092837;28;20036;-81
2021/12/15 08:02:23;;;;;;;4.20;2.50;;;9.60;99.90;;;;;;5091809;28;20032;-80
2021/12/15 08:04:49;;;;;;;4.20;2.28;;;9.70;99.90;;;;;;5092816;28;20036;-80
2021/12/15 08:07:15;;;;;;;4.20;1.92;;;9.80;99.90;;;;;;5093303;28;20073;-80
2021/12/15 08:09:41;;;;;;;2.67;2.05;;;9.80;99.90;;;;;;5092927;28;20028;-80
2021/12/15 08:12:08;;;;;;;3.03;2.42;;;9.80;99.90;;;;;;5091147;28;20182;-79
2021/12/15 08:14:33;;;;;;;3.47;2.60;;;9.90;99.90;;;;;;5091949;28;20085;-79
2021/12/15 08:16:59;;;;;;;3.83;2.22;;;9.90;99.90;;;;;;5106134;28;20021;-80
2021/12/15 08:19:25;;;;;;;2.40;1.70;;;10.10;99.90;;;;;;5092955;28;20028;-80
2021/12/15 08:21:52;;;;;;;3.45;1.92;;;10.20;99.90;;;;;;5090830;28;20501;-81
2021/12/15 08:24:18;;;;;;;4.65;2.38;;;10.30;99.90;;;;;;5093233;28;20063;-80
2021/12/15 08:26:44;;;;;;;2.60;2.10;;;10.40;99.90;;;;;;5090862;28;20124;-80
2021/12/15 08:29:10;;;;;;;3.00;1.90;;;10.50;99.90;;;;;;5092684;28;20031;-80
2021/12/15 08:31:36;;;;;;;2.35;2.10;;;10.60;99.90;;;;;;5090829;28;20101;-81
2021/12/15 08:34:03;;;;;;;2.13;2.00;;;10.70;99.90;;;;;;5092799;28;20060;-79
2021/12/15 08:36:29;;;;;;;2.78;2.05;;;10.80;99.90;;;;;;5090450;28;20039;-80
2021/12/15 08:38:55;;;;;;;2.22;2.03;;;10.90;99.90;;;;;;5092578;28;20028;-79
2021/12/15 08:41:24;;;;;;;3.03;2.00;;;11.00;99.90;;;;;;5091973;28;20040;-79
2021/12/15 08:43:51;;;;;;;1.60;1.48;;;11.10;99.90;;;;;;5091124;28;20024;-79
2021/12/15 08:46:39;;;;;;;2.88;1.50;;;11.20;99.90;;;;;;5091581;28;20036;-80
2021/12/15 08:49:08;;;;;;;1.70;1.52;;;11.20;99.90;;;;;;5084219;28;20111;-79
2021/12/15 08:51:34;;;;;;;2.92;1.80;;;11.20;99.90;;;;;;5090354;28;20024;-79
2021/12/15 08:54:04;;;;;;;3.70;1.65;;;11.20;99.90;;;;;;5092451;28;20027;-81
2021/12/15 08:56:31;;;;;;;4.07;2.05;;;11.20;99.90;;;;;;5091840;28;20028;-80
2021/12/15 08:58:58;;;;;;;3.22;1.75;;;11.10;99.90;;;;;;5091816;28;20036;-80
2021/12/15 09:01:25;;;;;;;3.22;1.98;;;11.10;99.90;;;;;;5082213;28;20131;-80
2021/12/15 09:03:51;;;;;;;3.35;2.10;;;11.20;99.90;;;;;;5091306;28;20381;-79
2021/12/15 09:06:17;;;;;;;3.08;1.80;;;11.30;99.90;;;;;;5091640;28;20043;-80
2021/12/15 09:08:45;;;;;;;3.53;2.22;;;11.30;99.90;;;;;;5092004;28;20078;-80
2021/12/15 09:11:15;;;;;;;2.17;1.95;;;11.40;99.90;;;;;;5090571;28;20028;-79
2021/12/15 09:13:41;;;;;;;2.92;2.10;;;11.40;99.90;;;;;;5091949;28;20024;-78
2021/12/15 09:16:10;;;;;;;2.55;2.00;;;11.50;99.90;;;;;;5084780;28;20070;-79
2021/12/15 09:18:38;;;;;;;3.78;1.92;;;11.50;99.90;;;;;;5091551;28;20402;-79
2021/12/15 09:21:06;;;;;;;2.42;1.60;;;11.50;99.90;;;;;;5091032;28;20016;-79
2021/12/15 09:23:32;;;;;;;2.40;1.70;;;11.60;99.90;;;;;;5091699;28;20032;-79
2021/12/15 09:25:58;;;;;;;2.22;1.58;;;11.60;99.90;;;;;;5091302;28;20047;-78
2021/12/15 09:28:25;;;;;;;1.90;1.70;;;11.60;99.90;;;;;;5091556;28;20051;-78
2021/12/15 09:30:53;;;;;;;3.53;2.20;;;11.70;99.90;;;;;;5088774;28;20468;-77
2021/12/15 09:33:26;;;;;;;2.65;2.42;;;11.80;99.90;;;;;;5091008;28;20032;-79
2021/12/15 09:35:52;;;;;;;3.95;2.47;;;11.90;99.90;;;;;;5085905;28;20026;-78
2021/12/15 09:38:20;;;;;;;2.45;2.25;;;11.90;99.90;;;;;;5090347;28;20397;-79
2021/12/15 09:40:49;;;;;;;4.45;2.28;;;11.90;99.90;;;;;;5090555;28;20040;-79
2021/12/15 09:43:15;;;;;;;4.75;2.20;;;11.90;99.90;;;;;;5090705;28;20031;-80
2021/12/15 09:56:24;;;;;;;2.97;2.55;;;11.70;99.90;;;;;;5084182;28;20081;-79
2021/12/15 10:04:54;;;;;;;4.53;2.45;;;12.20;99.90;;;;;;5090785;28;20042;-78
2021/12/15 10:19:14;;;;;;;2.10;1.67;;;12.40;99.90;;;;;;5091031;28;20031;-80
2021/12/15 10:21:29;;;;;;;2.70;2.20;;;12.40;99.90;;;;;;5086882;28;20028;-79
2021/12/15 10:23:56;;;;;;;2.90;2.47;;;12.40;99.90;;;;;;5090741;28;20115;-79
2021/12/15 10:26:23;;;;;;;2.70;2.15;;;12.40;99.90;;;;;;5090525;28;20039;-80
2021/12/15 10:28:52;;;;;;;2.92;2.00;;;12.50;99.90;;;;;;5090842;28;20020;-79
2021/12/15 10:31:21;;;;;;;2.25;1.90;;;12.50;99.90;;;;;;5089980;28;20027;-79
2021/12/15 10:33:48;;;;;;;2.67;2.38;;;12.50;99.90;;;;;;5089044;28;20465;-80
2021/12/15 10:36:21;;;;;;;2.67;2.47;;;12.60;99.90;;;;;;5088674;28;20055;-83
2021/12/15 10:38:51;;;;;;;2.15;1.98;;;12.60;99.90;;;;;;5089360;28;20039;-79
2021/12/15 10:41:36;;;;;;;3.67;2.60;;;12.70;99.90;;;;;;5089682;28;20414;-80
2021/12/15 10:44:13;;;;;;;2.97;2.67;;;12.70;99.90;;;;;;5093376;28;20093;-80
2021/12/15 10:46:40;;;;;;;2.92;2.13;;;12.70;99.90;;;;;;5093784;28;20048;-80
2021/12/15 10:49:13;;;;;;;2.40;1.90;;;12.60;99.90;;;;;;5092932;28;20390;-79
2021/12/15 10:51:50;;;;;;;3.10;2.35;;;12.60;99.90;;;;;;5093618;28;20032;-80
2021/12/15 10:54:25;;;;;;;4.57;3.17;;;12.50;99.90;;;;;;5087721;28;20020;-79
2021/12/15 10:56:56;;;;;;;2.72;2.53;;;12.40;99.90;;;;;;5093647;28;20116;-80
2021/12/15 10:59:25;;;;;;;4.13;3.03;;;12.30;99.90;;;;;;5094951;28;20035;-81
2021/12/15 11:01:56;;;;;;;4.45;3.05;;;12.30;99.90;;;;;;5092177;28;20089;-81
2021/12/15 11:04:27;;;;;;;3.17;2.67;;;12.30;99.90;;;;;;5093490;28;20129;-81
2021/12/15 11:07:31;;;;;;;3.45;2.60;;;12.30;99.90;;;;;;5093710;28;20382;-81
2021/12/15 11:10:10;;;;;;;4.47;2.97;;;12.30;99.90;;;;;;5089141;28;20021;-80
2021/12/15 11:12:51;;;;;;;3.38;2.00;;;12.50;99.90;;;;;;5091851;28;20019;-80
2021/12/15 11:15:17;;;;;;;3.50;2.85;;;12.70;99.90;;;;;;5093627;28;20020;-79
2021/12/15 11:17:49;;;;;;;3.25;2.53;;;12.80;99.90;;;;;;5093962;28;20043;-79
2021/12/15 11:20:26;;;;;;;3.30;1.73;;;12.90;99.90;;;;;;5093687;28;20028;-80
2021/12/15 11:23:05;;;;;;;2.78;1.63;;;13.00;99.90;;;;;;5092453;28;20286;-79
2021/12/15 11:25:36;;;;;;;2.40;1.90;;;13.20;99.90;;;;;;5092340;28;20032;-80
2021/12/15 11:28:10;;;;;;;2.03;1.75;;;13.00;99.90;;;;;;5093924;28;20029;-81
2021/12/15 11:31:01;;;;;;;5.32;3.05;;;13.10;99.90;;;;;;5092045;28;20027;-81
2021/12/15 11:33:32;;;;;;;3.42;2.25;;;13.10;99.90;;;;;;5073444;28;20171;-80
2021/12/15 11:36:10;;;;;;;2.10;1.63;;;13.20;99.90;;;;;;5093333;28;20054;-80
2021/12/15 11:38:47;;;;;;;1.60;1.50;;;13.40;99.90;;;;;;5092465;28;20028;-80
2021/12/15 11:41:41;;;;;;;3.10;2.00;;;13.30;99.90;;;;;;5092851;28;20040;-83
2021/12/15 11:44:12;;;;;;;2.33;2.00;;;13.30;99.90;;;;;;5089167;28;20032;-80
2021/12/15 11:46:41;;;;;;;2.25;1.92;;;13.10;99.90;;;;;;5093014;28;20039;-79
2021/12/15 11:49:21;;;;;;;3.03;2.58;;;13.00;99.90;;;;;;5093722;28;20024;-81
2021/12/15 11:51:54;;;;;;;4.68;3.35;;;12.70;99.90;;;;;;5093078;28;20061;-81
2021/12/15 11:54:21;;;;;;;1.95;1.65;;;12.50;99.90;;;;;;5092937;28;20056;-82
2021/12/15 11:56:57;;;;;;;2.08;1.88;;;12.40;99.90;;;;;;5092896;28;20073;-80
2021/12/15 11:59:35;;;;;;;1.83;1.60;;;12.20;99.90;;;;;;5093728;28;20028;-81
2021/12/15 12:02:09;;;;;;;4.55;2.20;;;12.40;99.90;;;;;;5092388;28;20020;-81
2021/12/15 12:04:41;;;;;;;5.03;3.47;;;12.70;99.90;;;;;;5091572;28;20394;-81
2021/12/15 12:07:30;;;;;;;4.00;2.90;;;12.90;99.90;;;;;;5092396;28;20015;-79
2021/12/15 12:10:01;;;;;;;2.60;2.40;;;13.10;99.90;;;;;;5092632;28;20612;-81
2021/12/15 12:12:38;;;;;;;2.15;1.75;;;13.10;99.90;;;;;;5091516;28;20040;-81
2021/12/15 12:15:09;;;;;;;4.88;2.40;;;13.00;99.90;;;;;;5091500;28;20024;-80
2021/12/15 12:17:38;;;;;;;4.28;1.70;;;13.00;99.90;;;;;;5093039;28;20466;-80
2021/12/15 12:20:07;;;;;;;1.92;1.83;;;12.90;99.90;;;;;;5092574;28;20381;-81
2021/12/15 12:22:34;;;;;;;2.55;2.10;;;12.90;99.90;;;;;;5092607;28;20085;-81
2021/12/15 12:25:03;;;;;;;2.40;2.20;;;12.80;99.90;;;;;;5092391;28;20394;-81
2021/12/15 12:27:31;;;;;;;3.05;2.08;;;13.20;99.90;;;;;;5091474;28;20031;-81
2021/12/15 12:29:59;;;;;;;3.33;2.60;;;14.00;99.90;;;;;;5091229;28;20024;-82
2021/12/15 12:32:25;;;;;;;2.55;2.30;;;15.20;99.90;;;;;;5091373;28;20016;-80
2021/12/15 12:34:52;;;;;;;2.92;2.40;;;15.60;99.90;;;;;;5092234;28;20028;-79
2021/12/15 12:37:18;;;;;;;2.88;2.10;;;15.30;99.90;;;;;;5092610;28;20052;-79
2021/12/15 12:39:48;;;;;;;3.05;2.20;;;15.10;99.90;;;;;;5091994;28;20031;-79
2021/12/15 12:42:34;;;;;;;3.00;2.30;;;15.50;99.90;;;;;;5091792;28;20028;-81
2021/12/15 12:45:18;;;;;;;2.25;1.90;;;14.90;99.90;;;;;;5089132;28;20029;-80
2021/12/15 12:48:11;;;;;;;2.25;1.90;;;15.40;99.90;;;;;;5084898;28;20024;-82
2021/12/15 13:01:06;;;;;;;;;;;18.90;96.90;;;;;;5091227;28;20028;-80
2021/12/15 13:03:36;;;;;;;3.67;2.25;;;17.90;97.00;;;;;;5092544;28;19916;-80
2021/12/15 13:06:07;;;;;;;7.63;3.55;;;17.30;98.10;;;;;;5090317;28;20702;-79
2021/12/15 13:08:43;;;;;;;6.15;4.15;;;18.30;96.50;;;;;;5091096;28;20050;-81
2021/12/15 13:11:22;;;;;;;2.80;2.42;;;19.00;93.00;;;;;;5089316;28;20159;-80
2021/12/15 13:14:10;;;;;;;11.65;6.35;;;18.50;94.00;;;;;;5090209;28;20031;-78
2021/12/15 13:16:56;;;;;;;4.93;3.53;;;17.90;94.10;;;;;;5087964;28;20105;-79
2021/12/15 13:19:35;;;;;;;3.72;2.95;;;16.70;96.10;;;;;;5083878;28;20024;-79
2021/12/15 13:31:03;;;;;;;2.90;2.47;;;14.90;99.90;;;;;;5086910;28;20069;-80
2021/12/15 13:33:34;;;;;;;3.80;2.70;;;14.70;99.90;;;;;;5085579;28;20093;-78
2021/12/15 13:36:22;;;;;;;3.63;2.58;;;14.40;99.90;;;;;;5083399;28;20575;-77
2021/12/15 13:39:04;;;;;;;5.90;4.50;;;13.80;99.90;;;;;;5084118;28;20036;-81
2021/12/15 13:44:03;;;;;;;5.13;4.07;;;13.60;99.90;;;;;;5086245;28;20120;-79
2021/12/15 13:46:38;;;;;;;17.63;10.27;;;13.80;99.90;;;;;;5085188;28;20716;-81
2021/12/15 13:49:19;;;;;;;11.15;6.65;;;13.50;99.90;;;;;;5088056;28;20274;-80
2021/12/15 13:52:09;;;;;;;5.20;4.32;;;13.50;99.90;;;;;;5089441;28;20030;-81
2021/12/15 13:54:35;;;;;;;3.53;3.20;;;13.80;99.90;;;;;;5089892;28;20024;-80
2021/12/15 13:57:15;;;;;;;4.07;2.85;;;13.50;99.90;;;;;;5085229;28;20035;-80
2021/12/15 14:00:12;;;;;;;3.83;3.30;;;13.30;99.90;;;;;;5083810;28;20020;-82
2021/12/15 14:02:42;;;;;;;5.05;3.88;;;13.20;99.90;;;;;;5085058;28;20486;-81
2021/12/15 14:05:17;;;;;;;7.25;4.78;;;13.30;99.90;;;;;;5083880;28;20042;-81
2021/12/15 14:07:47;;;;;;;4.25;3.85;;;13.50;99.90;;;;;;5089597;28;20085;-83
2021/12/15 14:10:12;;;;;;;4.93;3.42;;;13.70;99.90;;;;;;5091059;28;20416;-83
2021/12/15 14:12:47;;;;;;;7.00;3.70;;;13.90;99.90;;;;;;5091623;28;20024;-81
2021/12/15 14:15:36;;;;;;;3.75;3.33;;;13.40;99.90;;;;;;5091317;28;20028;-82
2021/12/15 14:18:10;;;;;;;6.97;3.97;;;12.80;99.90;;;;;;5090673;28;20031;-82
2021/12/15 14:20:37;;;;;;;4.00;3.33;;;12.20;99.90;;;;;;5087982;28;20024;-81
2021/12/15 14:23:32;;;;;;;10.32;6.60;;;11.70;99.90;;;;;;5081265;28;20028;-83
2021/12/15 14:25:59;;;;;;;4.57;3.55;;;11.60;99.90;;;;;;5078840;28;20071;-79
2021/12/15 14:28:26;;;;;;;2.97;2.72;;;11.40;99.90;;;;;;5088579;28;20012;-80
2021/12/15 14:31:06;;;;;;;5.20;3.78;;;11.20;99.90;;;;;;5090146;28;20032;-80
2021/12/15 14:33:37;;;;;;;5.63;3.90;;;11.10;99.90;;;;;;5090217;28;20190;-80
2021/12/15 14:36:13;;;;;;;3.63;3.00;;;11.20;99.90;;;;;;5086385;28;20024;-80
2021/12/15 14:38:46;;;;;;;4.40;3.30;;;10.90;99.90;;;;;;5090914;28;20085;-81
2021/12/15 14:41:17;;;;;;;5.22;3.60;;;10.80;99.90;;;;;;5089074;28;20044;-80
2021/12/15 14:43:48;;;;;;;3.70;3.10;;;10.90;99.90;;;;;;5084107;28;20036;-79
2021/12/15 14:46:16;;;;;;;5.68;3.38;;;10.90;99.90;;;;;;5087623;28;20107;-80